This is the latest recevied weather packets stored in our database for station/object K1ADM. If no packets are shown the sender has not sent any weather packets the latest 10 day(s).
| Time | Temp. | Humidity | Pressure | Rain* | Wind** | Luminosity | Snow |
|---|---|---|---|---|---|---|---|
| 1777273203 | 8.89° C | 62% | 1021.5 hPa | 0 mm | - | - | - |
| 1777272303 | 8.89° C | 62% | 1021.4 hPa | 0 mm | - | - | - |
| 1777271103 | 8.89° C | 62% | 1021.3 hPa | 0 mm | - | - | - |
| 1777270204 | 8.89° C | 63% | 1021.5 hPa | 0 mm | - | - | - |
| 1777269003 | 8.89° C | 63% | 1021.5 hPa | 0 mm | - | - | - |
| 1777268103 | 8.89° C | 63% | 1021.5 hPa | 0 mm | - | - | - |
| 1777266304 | 8.89° C | 63% | 1021.4 hPa | 0 mm | - | - | - |
| 1777265404 | 8.89° C | 62% | 1021.6 hPa | 0 mm | - | - | - |
| 1777264503 | 8.89° C | 64% | 1021.6 hPa | 0 mm | - | - | - |
| 1777263303 | 8.33° C | 65% | 1021.5 hPa | 0 mm | - | - | - |
| 1777260904 | 8.89° C | 64% | 1021.3 hPa | 0 mm | - | - | - |
| 1777257604 | 10.56° C | 61% | 1021 hPa | 0 mm | - | - | - |
| 1777257004 | 10.56° C | 60% | 1021.3 hPa | 0 mm | - | - | - |
| 1777252501 | 11.11° C | 57% | 1020.5 hPa | 0 mm | - | - | - |
| 1777250102 | 11.67° C | 55% | 1020.2 hPa | 0 mm | - | - | - |
| 1777249501 | 12.22° C | 53% | 1020 hPa | 0 mm | - | - | - |
| 1777248301 | 12.78° C | 52% | 1019.8 hPa | 0 mm | - | - | - |
| 1777247401 | 13.33° C | 51% | 1019.7 hPa | 0 mm | - | - | - |
| 1777246502 | 13.89° C | 50% | 1019.6 hPa | 0 mm | - | - | - |
| 1777245601 | 14.44° C | 49% | 1019.4 hPa | 0 mm | - | - | - |
| 1777244101 | 15° C | 48% | 1019.5 hPa | 0 mm | - | - | - |
| 1777242601 | 15.56° C | 48% | 1019.3 hPa | 0 mm | - | - | - |
| 1777242301 | 15.56° C | 47% | 1019.1 hPa | 0 mm | - | - | - |
| 1777237201 | 18.33° C | 43% | 1018.3 hPa | 0 mm | - | - | - |
| 1777232701 | 19.44° C | 39% | 1018.2 hPa | 0 mm | - | - | - |
* Rain latest hour (hover to see other rain measurements)
** Current wind speed in m/s (hover to see current wind gust speed)